sensor_id;sensor_type;location;lat;lon;timestamp;temperature;humidity
666;DHT22;315;48.738;9.126;2024-02-21T00:01:35;7.10;99.90
666;DHT22;315;48.738;9.126;2024-02-21T00:04:01;7.10;99.90
666;DHT22;315;48.738;9.126;2024-02-21T00:06:26;7.20;99.90
666;DHT22;315;48.738;9.126;2024-02-21T00:08:52;7.20;99.90
666;DHT22;315;48.738;9.126;2024-02-21T00:11:17;7.10;99.90
666;DHT22;315;48.738;9.126;2024-02-21T00:13:43;7.10;99.90
666;DHT22;315;48.738;9.126;2024-02-21T00:16:08;7.10;99.90
666;DHT22;315;48.738;9.126;2024-02-21T00:18:34;7.00;99.90
666;DHT22;315;48.738;9.126;2024-02-21T00:20:59;7.00;99.90
666;DHT22;315;48.738;9.126;2024-02-21T00:23:27;7.00;99.90
666;DHT22;315;48.738;9.126;2024-02-21T00:25:52;6.90;99.90
666;DHT22;315;48.738;9.126;2024-02-21T00:28:18;6.90;99.90
666;DHT22;315;48.738;9.126;2024-02-21T00:30:44;6.90;99.90
666;DHT22;315;48.738;9.126;2024-02-21T00:33:09;6.90;99.90
666;DHT22;315;48.738;9.126;2024-02-21T00:35:35;6.90;99.90
666;DHT22;315;48.738;9.126;2024-02-21T00:38:00;6.90;99.90
666;DHT22;315;48.738;9.126;2024-02-21T00:40:26;6.80;99.90
666;DHT22;315;48.738;9.126;2024-02-21T00:42:51;6.80;99.90
666;DHT22;315;48.738;9.126;2024-02-21T00:45:17;6.80;99.90
666;DHT22;315;48.738;9.126;2024-02-21T00:47:42;6.80;99.90
666;DHT22;315;48.738;9.126;2024-02-21T00:50:08;6.80;99.90
666;DHT22;315;48.738;9.126;2024-02-21T00:52:34;6.80;99.90
666;DHT22;315;48.738;9.126;2024-02-21T00:55:00;6.80;99.90
666;DHT22;315;48.738;9.126;2024-02-21T00:57:26;6.80;99.90
666;DHT22;315;48.738;9.126;2024-02-21T00:59:51;6.80;99.90
666;DHT22;315;48.738;9.126;2024-02-21T01:02:17;6.70;99.90
666;DHT22;315;48.738;9.126;2024-02-21T01:04:43;6.70;99.90
666;DHT22;315;48.738;9.126;2024-02-21T01:07:08;6.70;99.90
666;DHT22;315;48.738;9.126;2024-02-21T01:09:34;6.70;99.90
666;DHT22;315;48.738;9.126;2024-02-21T01:11:59;6.70;99.90
666;DHT22;315;48.738;9.126;2024-02-21T01:14:25;6.60;99.90
666;DHT22;315;48.738;9.126;2024-02-21T01:16:50;6.60;99.90
666;DHT22;315;48.738;9.126;2024-02-21T01:19:16;6.50;99.90
666;DHT22;315;48.738;9.126;2024-02-21T01:21:41;6.50;99.90
666;DHT22;315;48.738;9.126;2024-02-21T01:24:07;6.50;99.90
666;DHT22;315;48.738;9.126;2024-02-21T01:26:32;6.50;99.90
666;DHT22;315;48.738;9.126;2024-02-21T01:28:58;6.50;99.90
666;DHT22;315;48.738;9.126;2024-02-21T01:31:23;6.50;99.90
666;DHT22;315;48.738;9.126;2024-02-21T01:33:48;6.50;99.90
666;DHT22;315;48.738;9.126;2024-02-21T01:36:14;6.40;99.90
666;DHT22;315;48.738;9.126;2024-02-21T01:38:39;6.40;99.90
666;DHT22;315;48.738;9.126;2024-02-21T01:41:05;6.40;99.90
666;DHT22;315;48.738;9.126;2024-02-21T01:43:31;6.40;99.90
666;DHT22;315;48.738;9.126;2024-02-21T01:45:57;6.40;99.90
666;DHT22;315;48.738;9.126;2024-02-21T01:48:23;6.50;99.90
666;DHT22;315;48.738;9.126;2024-02-21T01:50:49;6.40;99.90
666;DHT22;315;48.738;9.126;2024-02-21T01:53:21;6.40;99.90
666;DHT22;315;48.738;9.126;2024-02-21T01:55:48;6.40;99.90
666;DHT22;315;48.738;9.126;2024-02-21T01:58:15;6.40;99.90
666;DHT22;315;48.738;9.126;2024-02-21T02:00:42;6.40;99.90
666;DHT22;315;48.738;9.126;2024-02-21T02:03:10;6.40;99.90
666;DHT22;315;48.738;9.126;2024-02-21T02:05:35;6.30;99.90
666;DHT22;315;48.738;9.126;2024-02-21T02:08:01;6.40;99.90
666;DHT22;315;48.738;9.126;2024-02-21T02:10:27;6.30;99.90
666;DHT22;315;48.738;9.126;2024-02-21T02:12:52;6.30;99.90
666;DHT22;315;48.738;9.126;2024-02-21T02:15:18;6.30;99.90
666;DHT22;315;48.738;9.126;2024-02-21T02:17:43;6.30;99.90
666;DHT22;315;48.738;9.126;2024-02-21T02:20:09;6.30;99.90
666;DHT22;315;48.738;9.126;2024-02-21T02:22:37;6.30;99.90
666;DHT22;315;48.738;9.126;2024-02-21T02:25:04;6.30;99.90
666;DHT22;315;48.738;9.126;2024-02-21T02:27:30;6.30;99.90
666;DHT22;315;48.738;9.126;2024-02-21T02:29:55;6.30;99.90
666;DHT22;315;48.738;9.126;2024-02-21T02:32:21;6.40;99.90
666;DHT22;315;48.738;9.126;2024-02-21T02:34:46;6.30;99.90
666;DHT22;315;48.738;9.126;2024-02-21T02:37:12;6.40;99.90
666;DHT22;315;48.738;9.126;2024-02-21T02:39:37;6.40;99.90
666;DHT22;315;48.738;9.126;2024-02-21T02:42:03;6.40;99.90
666;DHT22;315;48.738;9.126;2024-02-21T02:44:28;6.40;99.90
666;DHT22;315;48.738;9.126;2024-02-21T02:46:54;6.40;99.90
666;DHT22;315;48.738;9.126;2024-02-21T02:49:19;6.40;99.90
666;DHT22;315;48.738;9.126;2024-02-21T02:51:45;6.40;99.90
666;DHT22;315;48.738;9.126;2024-02-21T02:54:11;6.40;99.90
666;DHT22;315;48.738;9.126;2024-02-21T02:56:37;6.50;99.90
666;DHT22;315;48.738;9.126;2024-02-21T02:59:02;6.50;99.90
666;DHT22;315;48.738;9.126;2024-02-21T03:01:28;6.40;99.90
666;DHT22;315;48.738;9.126;2024-02-21T03:03:54;6.40;99.90
666;DHT22;315;48.738;9.126;2024-02-21T03:06:19;6.30;99.90
666;DHT22;315;48.738;9.126;2024-02-21T03:08:45;6.30;99.90
666;DHT22;315;48.738;9.126;2024-02-21T03:11:11;6.20;99.90
666;DHT22;315;48.738;9.126;2024-02-21T03:13:36;6.10;99.90
666;DHT22;315;48.738;9.126;2024-02-21T03:16:02;6.00;99.90
666;DHT22;315;48.738;9.126;2024-02-21T03:18:28;6.00;99.90
666;DHT22;315;48.738;9.126;2024-02-21T03:20:53;5.90;99.90
666;DHT22;315;48.738;9.126;2024-02-21T03:23:19;5.90;99.90
666;DHT22;315;48.738;9.126;2024-02-21T03:25:45;5.90;99.90
666;DHT22;315;48.738;9.126;2024-02-21T03:28:10;5.90;99.90
666;DHT22;315;48.738;9.126;2024-02-21T03:30:36;6.00;99.90
666;DHT22;315;48.738;9.126;2024-02-21T03:33:02;6.10;99.90
666;DHT22;315;48.738;9.126;2024-02-21T03:35:28;6.20;99.90
666;DHT22;315;48.738;9.126;2024-02-21T03:37:53;6.10;99.90
666;DHT22;315;48.738;9.126;2024-02-21T03:40:19;6.20;99.90
666;DHT22;315;48.738;9.126;2024-02-21T03:42:44;6.20;99.90
666;DHT22;315;48.738;9.126;2024-02-21T03:45:10;6.10;99.90
666;DHT22;315;48.738;9.126;2024-02-21T03:47:35;6.10;99.90
666;DHT22;315;48.738;9.126;2024-02-21T03:50:01;6.00;99.90
666;DHT22;315;48.738;9.126;2024-02-21T03:52:26;6.00;99.90
666;DHT22;315;48.738;9.126;2024-02-21T03:54:52;6.00;99.90
666;DHT22;315;48.738;9.126;2024-02-21T03:57:20;5.90;99.90
666;DHT22;315;48.738;9.126;2024-02-21T03:59:46;5.90;99.90
666;DHT22;315;48.738;9.126;2024-02-21T04:02:11;5.90;99.90
666;DHT22;315;48.738;9.126;2024-02-21T04:04:37;5.90;99.90
666;DHT22;315;48.738;9.126;2024-02-21T04:07:03;5.90;99.90
666;DHT22;315;48.738;9.126;2024-02-21T04:09:32;5.90;99.90
666;DHT22;315;48.738;9.126;2024-02-21T04:11:59;5.80;99.90
666;DHT22;315;48.738;9.126;2024-02-21T04:14:24;5.80;99.90
666;DHT22;315;48.738;9.126;2024-02-21T04:16:50;5.80;99.90
666;DHT22;315;48.738;9.126;2024-02-21T04:19:15;5.70;99.90
666;DHT22;315;48.738;9.126;2024-02-21T04:21:41;5.70;99.90
666;DHT22;315;48.738;9.126;2024-02-21T04:24:06;5.70;99.90
666;DHT22;315;48.738;9.126;2024-02-21T04:26:32;5.70;99.90
666;DHT22;315;48.738;9.126;2024-02-21T04:28:57;5.60;99.90
666;DHT22;315;48.738;9.126;2024-02-21T04:31:23;5.60;99.90
666;DHT22;315;48.738;9.126;2024-02-21T04:33:48;5.60;99.90
666;DHT22;315;48.738;9.126;2024-02-21T04:36:14;5.60;99.90
666;DHT22;315;48.738;9.126;2024-02-21T04:38:40;5.60;99.90
666;DHT22;315;48.738;9.126;2024-02-21T04:41:06;5.60;99.90
666;DHT22;315;48.738;9.126;2024-02-21T04:43:31;5.60;99.90
666;DHT22;315;48.738;9.126;2024-02-21T04:45:57;5.60;99.90
666;DHT22;315;48.738;9.126;2024-02-21T04:48:22;5.60;99.90
666;DHT22;315;48.738;9.126;2024-02-21T04:50:48;5.60;99.90
666;DHT22;315;48.738;9.126;2024-02-21T04:53:13;5.60;99.90
666;DHT22;315;48.738;9.126;2024-02-21T04:55:39;5.60;99.90
666;DHT22;315;48.738;9.126;2024-02-21T04:58:05;5.60;99.90
666;DHT22;315;48.738;9.126;2024-02-21T05:00:30;5.60;99.90
666;DHT22;315;48.738;9.126;2024-02-21T05:02:56;5.50;99.90
666;DHT22;315;48.738;9.126;2024-02-21T05:05:22;5.50;99.90
666;DHT22;315;48.738;9.126;2024-02-21T05:07:47;5.50;99.90
666;DHT22;315;48.738;9.126;2024-02-21T05:10:13;5.50;99.90
666;DHT22;315;48.738;9.126;2024-02-21T05:12:38;5.40;99.90
666;DHT22;315;48.738;9.126;2024-02-21T05:15:04;5.50;99.90
666;DHT22;315;48.738;9.126;2024-02-21T05:17:30;5.50;99.90
666;DHT22;315;48.738;9.126;2024-02-21T05:19:55;5.50;99.90
666;DHT22;315;48.738;9.126;2024-02-21T05:22:21;5.50;99.90
666;DHT22;315;48.738;9.126;2024-02-21T05:24:46;5.40;99.90
666;DHT22;315;48.738;9.126;2024-02-21T05:27:12;5.40;99.90
666;DHT22;315;48.738;9.126;2024-02-21T05:29:37;5.40;99.90
666;DHT22;315;48.738;9.126;2024-02-21T05:32:03;5.40;99.90
666;DHT22;315;48.738;9.126;2024-02-21T05:34:29;5.40;99.90
666;DHT22;315;48.738;9.126;2024-02-21T05:36:54;5.40;99.90
666;DHT22;315;48.738;9.126;2024-02-21T05:39:20;5.50;99.90
666;DHT22;315;48.738;9.126;2024-02-21T05:41:48;5.50;99.90
666;DHT22;315;48.738;9.126;2024-02-21T05:44:13;5.50;99.90
666;DHT22;315;48.738;9.126;2024-02-21T05:46:39;5.50;99.90
666;DHT22;315;48.738;9.126;2024-02-21T05:49:04;5.50;99.90
666;DHT22;315;48.738;9.126;2024-02-21T05:51:34;5.50;99.90
666;DHT22;315;48.738;9.126;2024-02-21T05:53:59;5.50;99.90
666;DHT22;315;48.738;9.126;2024-02-21T05:56:25;5.50;99.90
666;DHT22;315;48.738;9.126;2024-02-21T05:58:50;5.50;99.90
666;DHT22;315;48.738;9.126;2024-02-21T06:01:16;5.50;99.90
666;DHT22;315;48.738;9.126;2024-02-21T06:03:42;5.50;99.90
666;DHT22;315;48.738;9.126;2024-02-21T06:06:07;5.50;99.90
666;DHT22;315;48.738;9.126;2024-02-21T06:08:33;5.40;99.90
666;DHT22;315;48.738;9.126;2024-02-21T06:10:58;5.50;99.90
666;DHT22;315;48.738;9.126;2024-02-21T06:13:24;5.40;99.90
666;DHT22;315;48.738;9.126;2024-02-21T06:15:53;5.40;99.90
666;DHT22;315;48.738;9.126;2024-02-21T06:18:19;5.40;99.90
666;DHT22;315;48.738;9.126;2024-02-21T06:20:45;5.40;99.90
666;DHT22;315;48.738;9.126;2024-02-21T06:23:11;5.40;99.90
666;DHT22;315;48.738;9.126;2024-02-21T06:25:37;5.30;99.90
666;DHT22;315;48.738;9.126;2024-02-21T06:28:03;5.30;99.90
666;DHT22;315;48.738;9.126;2024-02-21T06:30:28;5.30;99.90
666;DHT22;315;48.738;9.126;2024-02-21T06:32:54;5.30;99.90
666;DHT22;315;48.738;9.126;2024-02-21T06:35:22;5.30;99.90
666;DHT22;315;48.738;9.126;2024-02-21T06:37:50;5.30;99.90
666;DHT22;315;48.738;9.126;2024-02-21T06:40:17;5.30;99.90
666;DHT22;315;48.738;9.126;2024-02-21T06:42:42;5.40;99.90
666;DHT22;315;48.738;9.126;2024-02-21T06:45:08;5.40;99.90
666;DHT22;315;48.738;9.126;2024-02-21T06:47:34;5.50;99.90
666;DHT22;315;48.738;9.126;2024-02-21T06:49:59;5.50;99.90
666;DHT22;315;48.738;9.126;2024-02-21T06:52:25;5.60;99.90
666;DHT22;315;48.738;9.126;2024-02-21T06:54:51;5.60;99.90
666;DHT22;315;48.738;9.126;2024-02-21T06:57:16;5.70;99.90
666;DHT22;315;48.738;9.126;2024-02-21T06:59:42;5.80;99.90
666;DHT22;315;48.738;9.126;2024-02-21T07:02:07;6.00;99.90
666;DHT22;315;48.738;9.126;2024-02-21T07:04:33;6.10;99.90
666;DHT22;315;48.738;9.126;2024-02-21T07:06:59;6.20;99.90
666;DHT22;315;48.738;9.126;2024-02-21T07:09:25;6.40;99.90
666;DHT22;315;48.738;9.126;2024-02-21T07:11:50;6.50;99.90
666;DHT22;315;48.738;9.126;2024-02-21T07:14:16;6.70;99.90
666;DHT22;315;48.738;9.126;2024-02-21T07:16:41;6.80;99.90
666;DHT22;315;48.738;9.126;2024-02-21T07:19:07;6.80;99.90
666;DHT22;315;48.738;9.126;2024-02-21T07:21:32;7.00;99.90
666;DHT22;315;48.738;9.126;2024-02-21T07:23:58;7.10;99.90
666;DHT22;315;48.738;9.126;2024-02-21T07:26:24;7.20;99.90
666;DHT22;315;48.738;9.126;2024-02-21T07:28:49;7.40;99.90
666;DHT22;315;48.738;9.126;2024-02-21T07:31:15;7.50;99.90
666;DHT22;315;48.738;9.126;2024-02-21T07:33:40;7.80;99.90
666;DHT22;315;48.738;9.126;2024-02-21T07:36:07;8.00;99.90
666;DHT22;315;48.738;9.126;2024-02-21T07:38:34;8.30;99.90
666;DHT22;315;48.738;9.126;2024-02-21T07:40:59;8.40;99.90
666;DHT22;315;48.738;9.126;2024-02-21T07:43:25;8.50;99.90
666;DHT22;315;48.738;9.126;2024-02-21T07:45:52;8.60;99.90
666;DHT22;315;48.738;9.126;2024-02-21T07:48:18;8.70;99.90
666;DHT22;315;48.738;9.126;2024-02-21T07:50:44;8.70;99.90
666;DHT22;315;48.738;9.126;2024-02-21T07:53:10;8.50;99.90
666;DHT22;315;48.738;9.126;2024-02-21T07:55:35;8.60;99.90
666;DHT22;315;48.738;9.126;2024-02-21T07:58:01;8.50;99.90
666;DHT22;315;48.738;9.126;2024-02-21T08:00:26;8.70;99.90
666;DHT22;315;48.738;9.126;2024-02-21T08:02:52;8.60;99.90
666;DHT22;315;48.738;9.126;2024-02-21T08:05:18;8.70;99.90
666;DHT22;315;48.738;9.126;2024-02-21T08:07:43;8.70;99.90
666;DHT22;315;48.738;9.126;2024-02-21T08:10:09;8.70;99.90
666;DHT22;315;48.738;9.126;2024-02-21T08:12:35;8.90;99.90
666;DHT22;315;48.738;9.126;2024-02-21T08:15:01;9.10;99.90
666;DHT22;315;48.738;9.126;2024-02-21T08:17:28;9.20;99.90
666;DHT22;315;48.738;9.126;2024-02-21T08:19:54;9.20;99.90
666;DHT22;315;48.738;9.126;2024-02-21T08:22:19;9.30;99.90
666;DHT22;315;48.738;9.126;2024-02-21T08:24:45;9.50;99.90
666;DHT22;315;48.738;9.126;2024-02-21T08:27:10;9.50;99.90
666;DHT22;315;48.738;9.126;2024-02-21T08:29:36;9.60;99.90
666;DHT22;315;48.738;9.126;2024-02-21T08:32:01;9.70;99.90
666;DHT22;315;48.738;9.126;2024-02-21T08:34:27;9.90;99.90
666;DHT22;315;48.738;9.126;2024-02-21T08:36:55;10.20;99.90
666;DHT22;315;48.738;9.126;2024-02-21T08:39:20;10.40;99.90
666;DHT22;315;48.738;9.126;2024-02-21T08:41:46;10.40;99.90
666;DHT22;315;48.738;9.126;2024-02-21T08:44:12;10.50;99.90
666;DHT22;315;48.738;9.126;2024-02-21T08:46:37;10.50;99.90
666;DHT22;315;48.738;9.126;2024-02-21T08:49:05;10.40;99.90
666;DHT22;315;48.738;9.126;2024-02-21T08:51:31;10.20;99.90
666;DHT22;315;48.738;9.126;2024-02-21T08:53:56;10.10;99.90
666;DHT22;315;48.738;9.126;2024-02-21T08:56:22;10.10;99.90
666;DHT22;315;48.738;9.126;2024-02-21T08:58:47;10.20;99.90
666;DHT22;315;48.738;9.126;2024-02-21T09:01:13;10.00;99.90
666;DHT22;315;48.738;9.126;2024-02-21T09:03:39;9.90;99.90
666;DHT22;315;48.738;9.126;2024-02-21T09:06:05;9.80;99.90
666;DHT22;315;48.738;9.126;2024-02-21T09:08:31;9.90;99.90
666;DHT22;315;48.738;9.126;2024-02-21T09:10:57;10.10;99.90
666;DHT22;315;48.738;9.126;2024-02-21T09:13:22;10.20;99.90
666;DHT22;315;48.738;9.126;2024-02-21T09:15:49;10.30;99.90
666;DHT22;315;48.738;9.126;2024-02-21T09:18:17;10.40;99.90
666;DHT22;315;48.738;9.126;2024-02-21T09:20:43;10.70;99.90
666;DHT22;315;48.738;9.126;2024-02-21T09:23:09;10.80;99.90
666;DHT22;315;48.738;9.126;2024-02-21T09:25:34;10.80;99.90
666;DHT22;315;48.738;9.126;2024-02-21T09:28:01;10.80;99.90
666;DHT22;315;48.738;9.126;2024-02-21T09:30:27;10.90;99.90
666;DHT22;315;48.738;9.126;2024-02-21T09:32:53;11.60;99.90
666;DHT22;315;48.738;9.126;2024-02-21T09:35:19;11.80;99.90
666;DHT22;315;48.738;9.126;2024-02-21T09:37:44;12.00;99.90
666;DHT22;315;48.738;9.126;2024-02-21T09:40:10;12.30;99.90
666;DHT22;315;48.738;9.126;2024-02-21T09:42:41;13.00;99.90
666;DHT22;315;48.738;9.126;2024-02-21T09:45:26;13.50;99.90
666;DHT22;315;48.738;9.126;2024-02-21T09:48:11;13.90;99.90
666;DHT22;315;48.738;9.126;2024-02-21T09:50:40;14.10;99.90
666;DHT22;315;48.738;9.126;2024-02-21T09:53:09;14.40;99.50
666;DHT22;315;48.738;9.126;2024-02-21T09:55:37;14.40;98.60
666;DHT22;315;48.738;9.126;2024-02-21T09:58:06;14.80;98.40
666;DHT22;315;48.738;9.126;2024-02-21T10:00:32;15.00;94.40
666;DHT22;315;48.738;9.126;2024-02-21T10:02:59;14.20;96.80
666;DHT22;315;48.738;9.126;2024-02-21T10:05:24;13.90;98.20
666;DHT22;315;48.738;9.126;2024-02-21T10:07:51;14.40;97.40
666;DHT22;315;48.738;9.126;2024-02-21T10:10:17;15.40;95.10
666;DHT22;315;48.738;9.126;2024-02-21T10:12:52;15.70;91.60
666;DHT22;315;48.738;9.126;2024-02-21T10:15:21;16.30;88.40
666;DHT22;315;48.738;9.126;2024-02-21T10:17:58;16.60;84.00
666;DHT22;315;48.738;9.126;2024-02-21T10:20:24;16.60;84.30
666;DHT22;315;48.738;9.126;2024-02-21T10:23:03;16.70;81.80
666;DHT22;315;48.738;9.126;2024-02-21T10:25:33;17.20;79.00
666;DHT22;315;48.738;9.126;2024-02-21T10:27:59;16.90;76.00
666;DHT22;315;48.738;9.126;2024-02-21T10:30:24;17.10;76.80
666;DHT22;315;48.738;9.126;2024-02-21T10:32:51;17.10;73.50
666;DHT22;315;48.738;9.126;2024-02-21T10:35:30;16.50;76.10
666;DHT22;315;48.738;9.126;2024-02-21T10:37:56;16.10;78.60
666;DHT22;315;48.738;9.126;2024-02-21T10:40:24;15.90;77.00
666;DHT22;315;48.738;9.126;2024-02-21T10:42:53;16.00;78.60
666;DHT22;315;48.738;9.126;2024-02-21T10:45:21;16.60;76.20
666;DHT22;315;48.738;9.126;2024-02-21T10:47:50;16.00;76.80
666;DHT22;315;48.738;9.126;2024-02-21T10:50:21;15.90;80.10
666;DHT22;315;48.738;9.126;2024-02-21T10:52:52;15.70;79.50
666;DHT22;315;48.738;9.126;2024-02-21T10:55:26;15.30;79.00
666;DHT22;315;48.738;9.126;2024-02-21T10:57:57;14.90;82.80
666;DHT22;315;48.738;9.126;2024-02-21T11:00:24;14.80;84.20
666;DHT22;315;48.738;9.126;2024-02-21T11:02:58;14.80;85.80
666;DHT22;315;48.738;9.126;2024-02-21T11:05:25;14.80;83.90
666;DHT22;315;48.738;9.126;2024-02-21T11:07:53;14.80;83.70
666;DHT22;315;48.738;9.126;2024-02-21T11:10:25;14.50;86.00
666;DHT22;315;48.738;9.126;2024-02-21T11:13:08;14.40;87.00
666;DHT22;315;48.738;9.126;2024-02-21T11:15:34;14.20;89.10
666;DHT22;315;48.738;9.126;2024-02-21T11:18:00;14.30;86.10
666;DHT22;315;48.738;9.126;2024-02-21T11:20:32;14.30;85.40
666;DHT22;315;48.738;9.126;2024-02-21T11:22:59;14.60;86.00
666;DHT22;315;48.738;9.126;2024-02-21T11:25:26;14.60;79.60
666;DHT22;315;48.738;9.126;2024-02-21T11:28:05;14.70;78.80
666;DHT22;315;48.738;9.126;2024-02-21T11:30:36;15.00;75.50
666;DHT22;315;48.738;9.126;2024-02-21T11:33:03;15.10;73.80
666;DHT22;315;48.738;9.126;2024-02-21T11:35:35;14.80;73.00
666;DHT22;315;48.738;9.126;2024-02-21T11:38:14;14.80;70.00
666;DHT22;315;48.738;9.126;2024-02-21T11:40:46;14.70;71.10
666;DHT22;315;48.738;9.126;2024-02-21T11:43:12;14.80;71.10
666;DHT22;315;48.738;9.126;2024-02-21T11:45:37;14.80;70.90
666;DHT22;315;48.738;9.126;2024-02-21T11:48:06;14.80;71.30
666;DHT22;315;48.738;9.126;2024-02-21T11:50:32;15.00;70.50
666;DHT22;315;48.738;9.126;2024-02-21T11:52:58;15.10;68.70
666;DHT22;315;48.738;9.126;2024-02-21T11:55:23;15.10;70.20
666;DHT22;315;48.738;9.126;2024-02-21T11:57:52;14.80;70.70
666;DHT22;315;48.738;9.126;2024-02-21T12:00:19;14.20;71.40
666;DHT22;315;48.738;9.126;2024-02-21T12:02:50;13.90;75.80
666;DHT22;315;48.738;9.126;2024-02-21T12:05:15;14.30;76.70
666;DHT22;315;48.738;9.126;2024-02-21T12:07:41;14.70;73.40
666;DHT22;315;48.738;9.126;2024-02-21T12:10:09;14.80;69.70
666;DHT22;315;48.738;9.126;2024-02-21T12:12:35;15.00;67.70
666;DHT22;315;48.738;9.126;2024-02-21T12:15:06;14.80;64.10
666;DHT22;315;48.738;9.126;2024-02-21T12:17:36;14.60;63.00
666;DHT22;315;48.738;9.126;2024-02-21T12:20:02;14.70;62.40
666;DHT22;315;48.738;9.126;2024-02-21T12:22:31;15.00;64.30
666;DHT22;315;48.738;9.126;2024-02-21T12:25:02;15.00;62.70
666;DHT22;315;48.738;9.126;2024-02-21T12:27:28;15.10;63.60
666;DHT22;315;48.738;9.126;2024-02-21T12:29:54;15.40;62.00
666;DHT22;315;48.738;9.126;2024-02-21T12:32:19;15.30;61.20
666;DHT22;315;48.738;9.126;2024-02-21T12:34:45;15.30;61.00
666;DHT22;315;48.738;9.126;2024-02-21T12:37:11;15.50;59.90
666;DHT22;315;48.738;9.126;2024-02-21T12:39:38;15.90;59.80
666;DHT22;315;48.738;9.126;2024-02-21T12:42:04;15.70;58.60
666;DHT22;315;48.738;9.126;2024-02-21T12:44:29;15.50;58.50
666;DHT22;315;48.738;9.126;2024-02-21T12:46:55;15.40;59.00
666;DHT22;315;48.738;9.126;2024-02-21T12:49:20;15.40;59.20
666;DHT22;315;48.738;9.126;2024-02-21T12:51:46;15.50;59.50
666;DHT22;315;48.738;9.126;2024-02-21T12:54:12;15.70;58.90
666;DHT22;315;48.738;9.126;2024-02-21T12:56:37;15.30;57.60
666;DHT22;315;48.738;9.126;2024-02-21T12:59:03;15.10;59.20
666;DHT22;315;48.738;9.126;2024-02-21T13:01:29;15.10;60.60
666;DHT22;315;48.738;9.126;2024-02-21T13:03:54;14.90;61.30
666;DHT22;315;48.738;9.126;2024-02-21T13:06:21;14.80;61.20
666;DHT22;315;48.738;9.126;2024-02-21T13:08:46;14.50;60.10
666;DHT22;315;48.738;9.126;2024-02-21T13:11:12;14.60;62.30
666;DHT22;315;48.738;9.126;2024-02-21T13:13:44;14.80;61.60
666;DHT22;315;48.738;9.126;2024-02-21T13:16:09;14.90;61.90
666;DHT22;315;48.738;9.126;2024-02-21T13:18:36;14.90;60.50
666;DHT22;315;48.738;9.126;2024-02-21T13:21:04;14.80;59.10
666;DHT22;315;48.738;9.126;2024-02-21T13:23:29;14.50;59.20
666;DHT22;315;48.738;9.126;2024-02-21T13:25:55;14.80;61.30
666;DHT22;315;48.738;9.126;2024-02-21T13:28:20;14.60;58.40
666;DHT22;315;48.738;9.126;2024-02-21T13:30:46;14.70;60.00
666;DHT22;315;48.738;9.126;2024-02-21T13:33:12;15.00;58.40
666;DHT22;315;48.738;9.126;2024-02-21T13:35:38;15.30;57.40
666;DHT22;315;48.738;9.126;2024-02-21T13:38:04;15.40;57.50
666;DHT22;315;48.738;9.126;2024-02-21T13:40:30;15.70;56.30
666;DHT22;315;48.738;9.126;2024-02-21T13:42:55;15.90;56.10
666;DHT22;315;48.738;9.126;2024-02-21T13:45:21;15.70;56.20
666;DHT22;315;48.738;9.126;2024-02-21T13:47:46;15.60;56.10
666;DHT22;315;48.738;9.126;2024-02-21T13:50:13;15.30;57.30
666;DHT22;315;48.738;9.126;2024-02-21T13:52:40;15.30;57.30
666;DHT22;315;48.738;9.126;2024-02-21T13:55:05;14.80;55.50
666;DHT22;315;48.738;9.126;2024-02-21T13:57:37;14.80;57.70
666;DHT22;315;48.738;9.126;2024-02-21T14:00:03;14.70;57.70
666;DHT22;315;48.738;9.126;2024-02-21T14:02:30;14.40;57.80
666;DHT22;315;48.738;9.126;2024-02-21T14:04:56;14.40;57.90
666;DHT22;315;48.738;9.126;2024-02-21T14:07:21;14.40;58.10
666;DHT22;315;48.738;9.126;2024-02-21T14:09:47;14.20;57.90
666;DHT22;315;48.738;9.126;2024-02-21T14:12:13;14.00;57.70
666;DHT22;315;48.738;9.126;2024-02-21T14:14:38;13.90;56.90
666;DHT22;315;48.738;9.126;2024-02-21T14:17:04;13.80;58.70
666;DHT22;315;48.738;9.126;2024-02-21T14:19:30;13.90;59.80
666;DHT22;315;48.738;9.126;2024-02-21T14:21:56;13.80;59.20
666;DHT22;315;48.738;9.126;2024-02-21T14:24:22;13.70;60.20
666;DHT22;315;48.738;9.126;2024-02-21T14:26:47;13.80;59.80
666;DHT22;315;48.738;9.126;2024-02-21T14:29:14;13.70;59.60
666;DHT22;315;48.738;9.126;2024-02-21T14:31:39;13.70;59.00
666;DHT22;315;48.738;9.126;2024-02-21T14:34:05;13.70;60.10
666;DHT22;315;48.738;9.126;2024-02-21T14:36:35;13.70;60.20
666;DHT22;315;48.738;9.126;2024-02-21T14:39:00;13.80;60.50
666;DHT22;315;48.738;9.126;2024-02-21T14:41:26;13.90;59.10
666;DHT22;315;48.738;9.126;2024-02-21T14:43:53;13.90;59.70
666;DHT22;315;48.738;9.126;2024-02-21T14:46:18;13.90;58.40
666;DHT22;315;48.738;9.126;2024-02-21T14:48:44;13.80;56.80
666;DHT22;315;48.738;9.126;2024-02-21T14:51:10;13.70;56.20
666;DHT22;315;48.738;9.126;2024-02-21T14:53:36;13.60;55.70
666;DHT22;315;48.738;9.126;2024-02-21T14:56:01;13.40;55.90
666;DHT22;315;48.738;9.126;2024-02-21T14:58:27;13.40;57.80
666;DHT22;315;48.738;9.126;2024-02-21T15:00:53;13.40;57.10
666;DHT22;315;48.738;9.126;2024-02-21T15:03:19;13.40;57.40
666;DHT22;315;48.738;9.126;2024-02-21T15:05:46;13.50;58.50
666;DHT22;315;48.738;9.126;2024-02-21T15:08:11;13.50;58.10
666;DHT22;315;48.738;9.126;2024-02-21T15:10:38;13.50;59.50
666;DHT22;315;48.738;9.126;2024-02-21T15:13:03;13.50;59.70
666;DHT22;315;48.738;9.126;2024-02-21T15:15:29;13.40;63.30
666;DHT22;315;48.738;9.126;2024-02-21T15:17:55;13.30;63.60
666;DHT22;315;48.738;9.126;2024-02-21T15:20:20;13.20;65.30
666;DHT22;315;48.738;9.126;2024-02-21T15:22:46;13.10;66.40
666;DHT22;315;48.738;9.126;2024-02-21T15:25:11;13.00;68.90
666;DHT22;315;48.738;9.126;2024-02-21T15:27:44;13.00;69.40
666;DHT22;315;48.738;9.126;2024-02-21T15:30:13;12.90;69.30
666;DHT22;315;48.738;9.126;2024-02-21T15:32:39;12.90;70.80
666;DHT22;315;48.738;9.126;2024-02-21T15:35:05;12.90;73.50
666;DHT22;315;48.738;9.126;2024-02-21T15:37:35;12.90;75.80
666;DHT22;315;48.738;9.126;2024-02-21T15:40:01;12.90;77.90
666;DHT22;315;48.738;9.126;2024-02-21T15:42:29;12.90;80.40
666;DHT22;315;48.738;9.126;2024-02-21T15:44:54;12.80;81.60
666;DHT22;315;48.738;9.126;2024-02-21T15:47:20;12.70;86.30
666;DHT22;315;48.738;9.126;2024-02-21T15:49:49;12.60;89.00
666;DHT22;315;48.738;9.126;2024-02-21T15:52:15;12.60;90.60
666;DHT22;315;48.738;9.126;2024-02-21T15:54:41;12.50;92.00
666;DHT22;315;48.738;9.126;2024-02-21T15:57:06;12.50;92.90
666;DHT22;315;48.738;9.126;2024-02-21T15:59:33;12.50;94.00
666;DHT22;315;48.738;9.126;2024-02-21T16:01:58;12.40;94.60
666;DHT22;315;48.738;9.126;2024-02-21T16:04:27;12.40;94.90
666;DHT22;315;48.738;9.126;2024-02-21T16:06:54;12.40;95.30
666;DHT22;315;48.738;9.126;2024-02-21T16:09:19;12.30;95.50
666;DHT22;315;48.738;9.126;2024-02-21T16:11:45;12.30;97.40
666;DHT22;315;48.738;9.126;2024-02-21T16:14:11;12.30;97.00
666;DHT22;315;48.738;9.126;2024-02-21T16:16:37;12.30;96.90
666;DHT22;315;48.738;9.126;2024-02-21T16:19:06;12.30;97.50
666;DHT22;315;48.738;9.126;2024-02-21T16:21:31;12.30;98.00
666;DHT22;315;48.738;9.126;2024-02-21T16:23:57;12.20;99.30
666;DHT22;315;48.738;9.126;2024-02-21T16:26:22;12.20;99.90
666;DHT22;315;48.738;9.126;2024-02-21T16:28:48;12.20;99.90
666;DHT22;315;48.738;9.126;2024-02-21T16:31:13;12.20;99.90
666;DHT22;315;48.738;9.126;2024-02-21T16:33:39;12.20;99.90
666;DHT22;315;48.738;9.126;2024-02-21T16:36:05;12.20;99.90
666;DHT22;315;48.738;9.126;2024-02-21T16:38:33;12.20;99.90